Time;durP1;ratioP1;P1;durP2;ratioP2;P2;SDS_P1;SDS_P2;PMS_P1;PMS_P2;Temp;Humidity;BMP_temperature;BMP_pressure;BME280_temperature;BME280_humidity;BME280_pressure;Samples;Min_cycle;Max_cycle;Signal;HPM_P1;HPM_P2
2022/12/17 13:08:07;;;;;;;92.78;65.80;;;0.30;99.90;;;;;;4989931;28;20517;-71
2022/12/17 13:10:34;;;;;;;84.33;62.23;;;0.20;99.90;;;;;;5018427;28;20392;-71
2022/12/17 13:13:19;;;;;;;86.00;61.10;;;0.30;99.90;;;;;;5017645;28;20503;-71
2022/12/17 13:15:58;;;;;;;90.50;66.20;;;0.30;99.90;;;;;;5034540;28;20060;-71
2022/12/17 13:18:40;;;;;;;89.20;62.53;;;0.20;99.90;;;;;;5034259;28;20044;-71
2022/12/17 13:21:15;;;;;;;91.90;62.63;;;0.20;99.90;;;;;;5032592;28;20132;-70
2022/12/17 13:23:42;;;;;;;89.00;63.40;;;0.20;99.90;;;;;;5033408;28;20511;-71
2022/12/17 13:26:29;;;;;;;94.87;63.73;;;0.20;99.90;;;;;;5014324;28;20407;-71
2022/12/17 13:28:54;;;;;;;89.60;63.30;;;0.20;99.90;;;;;;5032162;28;20515;-71
2022/12/17 13:31:29;;;;;;;91.67;64.17;;;0.20;99.90;;;;;;5034807;28;20037;-70
2022/12/17 13:34:24;;;;;;;91.23;62.37;;;0.20;99.90;;;;;;5019852;28;20510;-71
2022/12/17 13:37:07;;;;;;;93.20;65.23;;;0.20;99.90;;;;;;5049786;28;20109;-70
2022/12/17 13:40:08;;;;;;;90.70;64.07;;;0.20;99.90;;;;;;5036358;28;20502;-71
2022/12/17 13:42:35;;;;;;;101.83;70.93;;;0.10;99.90;;;;;;5031770;28;20516;-71
2022/12/17 13:45:01;;;;;;;90.67;62.33;;;0.10;99.90;;;;;;5036331;28;20056;-71
2022/12/17 13:47:30;;;;;;;89.00;62.80;;;0.10;99.90;;;;;;5000334;28;20036;-70
2022/12/17 13:49:57;;;;;;;88.50;62.37;;;0.10;99.90;;;;;;5018453;28;20146;-71
2022/12/17 13:52:26;;;;;;;90.07;62.07;;;0.10;99.90;;;;;;5030738;28;20273;-70
2022/12/17 13:54:53;;;;;;;91.73;64.03;;;0.10;99.90;;;;;;5016029;28;20044;-70
2022/12/17 13:57:26;;;;;;;85.57;60.70;;;0.20;99.90;;;;;;5029914;28;20065;-70
2022/12/17 13:59:57;;;;;;;83.60;60.53;;;0.20;99.90;;;;;;5019710;28;20036;-75
2022/12/17 14:02:28;;;;;;;91.10;63.17;;;0.20;99.90;;;;;;5033896;28;20291;-75
2022/12/17 14:04:56;;;;;;;88.40;60.83;;;0.10;99.90;;;;;;5020230;28;20040;-76
2022/12/17 14:07:23;;;;;;;90.33;63.20;;;0.10;99.90;;;;;;5037604;28;20055;-76
2022/12/17 14:09:52;;;;;;;86.70;61.22;;;0.10;99.90;;;;;;5037740;28;20119;-76
2022/12/17 14:12:21;;;;;;;87.60;60.93;;;0.10;99.90;;;;;;5019407;28;20526;-76
2022/12/17 14:15:15;;;;;;;88.90;61.93;;;0.10;99.90;;;;;;5037164;28;20056;-76
2022/12/17 14:17:47;;;;;;;90.77;62.00;;;0.10;99.90;;;;;;5022284;28;20135;-75
2022/12/17 14:20:43;;;;;;;88.70;60.17;;;0.00;99.90;;;;;;5036788;28;20589;-76
2022/12/17 14:23:33;;;;;;;94.13;64.43;;;0.00;99.90;;;;;;5011918;28;20048;-76
2022/12/17 14:25:59;;;;;;;92.82;62.72;;;0.00;99.90;;;;;;5020477;28;20052;-76
2022/12/17 14:28:34;;;;;;;87.83;60.80;;;0.00;99.90;;;;;;5023445;28;20036;-75
2022/12/17 14:31:27;;;;;;;86.13;60.17;;;-0.10;99.90;;;;;;5035247;28;20396;-76
2022/12/17 14:34:19;;;;;;;92.13;62.63;;;-0.10;99.90;;;;;;5035488;28;20525;-76
2022/12/17 14:36:51;;;;;;;92.33;62.13;;;-0.10;99.90;;;;;;5020673;28;20102;-76
2022/12/17 14:39:22;;;;;;;88.97;61.33;;;-0.10;99.90;;;;;;5039444;28;20049;-75
2022/12/17 14:44:33;;;;;;;87.57;58.97;;;-0.20;99.90;;;;;;5040213;28;20411;-70
2022/12/17 14:47:20;;;;;;;89.97;59.83;;;-0.20;99.90;;;;;;5034415;28;20526;-70
2022/12/17 14:50:05;;;;;;;87.67;58.43;;;-0.20;99.90;;;;;;5020196;28;20056;-69
2022/12/17 14:52:37;;;;;;;96.10;62.20;;;-0.30;99.90;;;;;;5017768;28;20188;-69
2022/12/17 14:55:38;;;;;;;93.63;60.33;;;-0.30;99.90;;;;;;5019024;28;20045;-69
2022/12/17 14:58:13;;;;;;;89.80;59.80;;;-0.30;99.90;;;;;;5041060;28;20414;-69
2022/12/17 15:00:47;;;;;;;96.87;61.40;;;-0.40;99.90;;;;;;5038080;28;20668;-70
2022/12/17 15:03:29;;;;;;;98.70;64.67;;;-0.40;99.90;;;;;;5026112;28;20056;-69
2022/12/17 15:06:02;;;;;;;95.17;61.40;;;-0.40;99.90;;;;;;5031300;28;20048;-70
2022/12/17 15:08:34;;;;;;;99.83;61.50;;;-0.40;99.90;;;;;;5041514;28;20047;-68
2022/12/17 15:11:00;;;;;;;92.20;57.63;;;-0.50;99.90;;;;;;5037305;28;20048;-69
2022/12/17 15:13:26;;;;;;;97.87;59.20;;;-0.40;99.90;;;;;;5023567;28;20179;-69
2022/12/17 15:15:52;;;;;;;97.23;59.33;;;-0.40;99.90;;;;;;5038081;28;20136;-70
2022/12/17 15:18:17;;;;;;;101.30;60.40;;;-0.50;99.90;;;;;;5040142;28;20864;-75
2022/12/17 15:20:44;;;;;;;101.97;62.60;;;-0.50;99.90;;;;;;5038098;28;20040;-75
2022/12/17 15:23:15;;;;;;;96.30;58.90;;;-0.60;99.90;;;;;;5036828;28;20067;-75
2022/12/17 15:25:41;;;;;;;103.53;62.20;;;-0.60;99.90;;;;;;5035629;28;20033;-75
2022/12/17 15:28:09;;;;;;;96.27;57.63;;;-0.60;99.90;;;;;;5022862;28;20048;-75
2022/12/17 15:30:34;;;;;;;94.73;57.17;;;-0.60;99.90;;;;;;5023282;28;20040;-74
2022/12/17 15:33:02;;;;;;;96.17;56.67;;;-0.60;99.90;;;;;;5023937;28;20564;-75
2022/12/17 15:35:31;;;;;;;96.87;58.57;;;-0.70;99.90;;;;;;5008778;28;20137;-75
2022/12/17 15:37:56;;;;;;;94.93;54.50;;;-0.80;99.90;;;;;;5021297;28;20040;-75
2022/12/17 15:40:22;;;;;;;99.93;57.53;;;-0.80;99.90;;;;;;5038984;28;20044;-74
2022/12/17 15:45:34;;;;;;;100.53;56.90;;;-0.80;99.90;;;;;;5040790;28;20041;-75
2022/12/17 15:48:00;;;;;;;107.27;59.27;;;-0.90;99.90;;;;;;5006910;28;20156;-75
2022/12/17 15:50:28;;;;;;;106.03;59.47;;;-0.90;99.90;;;;;;5024018;28;21717;-75
2022/12/17 15:52:54;;;;;;;107.20;58.03;;;-0.90;99.90;;;;;;5024854;28;20037;-75
2022/12/17 15:55:20;;;;;;;105.50;58.63;;;-0.90;99.90;;;;;;5037769;28;20068;-75
2022/12/17 15:57:46;;;;;;;107.67;59.80;;;-0.90;99.90;;;;;;5024360;28;20109;-74
2022/12/17 16:00:12;;;;;;;105.70;58.97;;;-1.00;99.90;;;;;;5036207;28;20482;-74
2022/12/17 16:02:41;;;;;;;107.47;59.83;;;-1.00;99.90;;;;;;5021173;28;20045;-75
2022/12/17 16:05:07;;;;;;;116.23;60.57;;;-1.00;99.90;;;;;;5008276;28;20044;-75
2022/12/17 16:07:33;;;;;;;115.80;60.17;;;-1.00;99.90;;;;;;5015608;28;20377;-75
2022/12/17 16:09:59;;;;;;;105.27;56.57;;;-0.90;99.90;;;;;;5027286;28;20185;-74
2022/12/17 16:12:25;;;;;;;110.07;59.63;;;-1.00;99.90;;;;;;5038729;28;20043;-76
2022/12/17 16:14:50;;;;;;;108.63;58.80;;;-1.10;99.90;;;;;;5024227;28;20091;-75
2022/12/17 16:17:16;;;;;;;104.90;56.77;;;-1.10;99.90;;;;;;4988227;28;20056;-76
2022/12/17 16:19:42;;;;;;;107.43;58.80;;;-1.10;99.90;;;;;;5019690;28;20055;-76
2022/12/17 16:22:09;;;;;;;113.67;64.97;;;-1.10;99.90;;;;;;5017376;28;20056;-76
2022/12/17 16:24:34;;;;;;;114.30;58.97;;;-1.10;99.90;;;;;;5013398;28;20905;-76
2022/12/17 16:27:00;;;;;;;121.93;69.67;;;-1.10;99.90;;;;;;5033185;28;20542;-75
2022/12/17 16:29:26;;;;;;;115.90;60.47;;;-1.20;99.90;;;;;;5033552;28;20459;-75
2022/12/17 16:31:52;;;;;;;114.97;58.20;;;-1.20;99.90;;;;;;5017079;28;20445;-76
2022/12/17 16:34:18;;;;;;;114.13;58.57;;;-1.30;99.90;;;;;;5018200;28;20049;-75
2022/12/17 16:36:44;;;;;;;115.47;59.60;;;-1.30;99.90;;;;;;5020635;28;20402;-75
2022/12/17 16:39:15;;;;;;;123.87;61.93;;;-1.30;99.90;;;;;;5034528;28;20082;-75
2022/12/17 16:41:41;;;;;;;123.57;62.20;;;-1.40;99.90;;;;;;5033140;28;20052;-75
2022/12/17 16:44:07;;;;;;;113.97;58.53;;;-1.40;99.90;;;;;;5037200;28;20045;-75
2022/12/17 16:46:35;;;;;;;124.73;63.00;;;-1.40;99.90;;;;;;5020905;28;20040;-74
2022/12/17 16:49:13;;;;;;;120.70;61.27;;;-1.40;99.90;;;;;;5037863;28;20997;-75
2022/12/17 16:51:39;;;;;;;112.03;58.80;;;-1.40;99.90;;;;;;5039816;28;20102;-74
2022/12/17 16:54:16;;;;;;;117.03;59.43;;;-1.40;99.90;;;;;;5039054;28;20126;-74
2022/12/17 16:56:43;;;;;;;122.47;61.00;;;-1.50;99.90;;;;;;5012846;28;20048;-74
2022/12/17 16:59:10;;;;;;;125.87;62.00;;;-1.50;99.90;;;;;;5038301;28;20144;-74
2022/12/17 17:01:37;;;;;;;129.57;62.70;;;-1.50;99.90;;;;;;4987442;28;20487;-73
2022/12/17 17:04:05;;;;;;;126.30;61.83;;;-1.50;99.90;;;;;;5039765;28;20131;-73
2022/12/17 17:06:31;;;;;;;129.50;62.43;;;-1.50;99.90;;;;;;5017808;28;20048;-74
2022/12/17 17:08:57;;;;;;;123.83;63.27;;;-1.50;99.90;;;;;;5017439;28;20492;-75
2022/12/17 17:11:24;;;;;;;120.53;60.27;;;-1.50;99.90;;;;;;5002350;28;20041;-75
2022/12/17 17:13:54;;;;;;;126.63;61.57;;;-1.50;99.90;;;;;;5018471;28;20048;-75
2022/12/17 17:16:22;;;;;;;131.75;62.70;;;-1.60;99.90;;;;;;4985475;28;20048;-75
2022/12/17 17:18:51;;;;;;;134.90;63.87;;;-1.50;99.90;;;;;;5014149;28;20041;-75
2022/12/17 17:21:33;;;;;;;129.90;64.27;;;-1.60;99.90;;;;;;5032007;28;20488;-75
2022/12/17 17:24:06;;;;;;;130.17;62.60;;;-1.50;99.90;;;;;;5025031;28;20041;-76
2022/12/17 17:26:33;;;;;;;143.17;64.77;;;-1.60;99.90;;;;;;5015683;28;20052;-75
2022/12/17 17:28:59;;;;;;;138.77;62.23;;;-1.60;99.90;;;;;;5036512;28;20122;-75
2022/12/17 17:31:26;;;;;;;131.67;64.17;;;-1.60;99.90;;;;;;5018942;28;20056;-75
2022/12/17 17:33:52;;;;;;;136.17;65.47;;;-1.60;99.90;;;;;;5010231;28;20071;-76
2022/12/17 17:36:27;;;;;;;140.50;65.80;;;-1.60;99.90;;;;;;5021940;28;20057;-74
2022/12/17 17:38:54;;;;;;;139.07;64.97;;;-1.60;99.90;;;;;;5036523;28;20040;-76
2022/12/17 17:41:22;;;;;;;138.93;63.53;;;-1.70;99.90;;;;;;5041864;28;20503;-75
2022/12/17 17:43:53;;;;;;;131.93;62.33;;;-1.70;99.90;;;;;;5021653;28;20056;-75
2022/12/17 17:46:19;;;;;;;120.63;59.93;;;-1.70;99.90;;;;;;5037852;28;20137;-75
2022/12/17 17:48:46;;;;;;;132.30;64.87;;;-1.70;99.90;;;;;;5006818;28;20087;-75
2022/12/17 17:51:18;;;;;;;121.80;60.73;;;-1.70;99.90;;;;;;5037468;28;20080;-75
2022/12/17 17:53:46;;;;;;;141.70;69.67;;;-1.70;99.90;;;;;;5020555;28;20040;-75
2022/12/17 17:56:14;;;;;;;149.17;71.17;;;-1.60;99.90;;;;;;5038639;28;20084;-76
2022/12/17 17:58:47;;;;;;;141.17;66.23;;;-1.70;99.90;;;;;;5025049;28;20087;-76
2022/12/17 18:01:16;;;;;;;128.87;65.57;;;-1.70;99.90;;;;;;5011926;28;20110;-74
2022/12/17 18:03:42;;;;;;;127.97;63.97;;;-1.80;99.90;;;;;;5019814;28;20076;-76
2022/12/17 18:06:10;;;;;;;128.43;64.60;;;-1.80;99.90;;;;;;5002433;28;20579;-75
2022/12/17 18:08:37;;;;;;;137.23;64.73;;;-1.80;99.90;;;;;;5039126;28;20120;-76
2022/12/17 18:11:05;;;;;;;139.07;66.17;;;-1.80;99.90;;;;;;5038625;28;20495;-76
2022/12/17 18:16:16;;;;;;;133.73;66.50;;;-1.80;99.90;;;;;;5017150;28;20049;-75
2022/12/17 18:18:42;;;;;;;150.20;75.60;;;-1.70;99.90;;;;;;5005062;28;20091;-75
2022/12/17 18:21:11;;;;;;;138.67;68.90;;;-1.80;99.90;;;;;;5011299;28;20351;-75
2022/12/17 18:23:37;;;;;;;143.63;71.47;;;-1.70;99.90;;;;;;5039857;28;20077;-75
2022/12/17 18:26:26;;;;;;;152.80;73.00;;;-1.70;99.90;;;;;;5026186;28;20137;-69
2022/12/17 18:28:52;;;;;;;146.50;71.77;;;-1.70;99.90;;;;;;4999578;28;20051;-70
2022/12/17 18:31:21;;;;;;;157.13;76.17;;;-1.70;99.90;;;;;;5008033;28;20048;-75
2022/12/17 18:33:50;;;;;;;148.52;72.47;;;-1.80;99.90;;;;;;5042015;28;20582;-75
2022/12/17 18:36:19;;;;;;;146.20;74.87;;;-1.70;99.90;;;;;;5023100;28;20071;-76
2022/12/17 18:38:45;;;;;;;153.13;76.27;;;-1.80;99.90;;;;;;5022214;28;20040;-74
2022/12/17 18:44:05;;;;;;;145.35;75.05;;;-1.80;99.90;;;;;;5041378;28;20091;-74
2022/12/17 18:46:32;;;;;;;138.47;71.70;;;-1.80;99.90;;;;;;5039708;28;20353;-76
2022/12/17 18:49:01;;;;;;;141.97;73.10;;;-1.80;99.90;;;;;;5036311;28;20246;-76
2022/12/17 18:51:27;;;;;;;131.40;68.90;;;-1.80;99.90;;;;;;5039350;28;20044;-75
2022/12/17 18:53:58;;;;;;;122.93;67.67;;;-1.80;99.90;;;;;;5013406;28;20102;-75
2022/12/17 18:56:25;;;;;;;118.97;66.27;;;-1.80;99.90;;;;;;5036997;28;20380;-76
2022/12/17 18:58:52;;;;;;;115.23;67.70;;;-1.90;99.90;;;;;;5039832;28;20419;-76
2022/12/17 19:01:24;;;;;;;124.13;70.80;;;-1.90;99.90;;;;;;5039630;28;21420;-76
2022/12/17 19:03:50;;;;;;;111.73;68.07;;;-1.90;99.90;;;;;;5010364;28;20152;-75
2022/12/17 19:06:18;;;;;;;111.43;68.07;;;-2.00;99.90;;;;;;5040293;28;20059;-75
2022/12/17 19:08:44;;;;;;;114.87;69.00;;;-2.00;99.90;;;;;;5037786;28;20650;-75
2022/12/17 19:11:11;;;;;;;117.57;71.60;;;-2.00;99.90;;;;;;5042216;28;20044;-75
2022/12/17 19:13:37;;;;;;;117.07;72.13;;;-2.00;99.90;;;;;;5005419;28;20402;-75
2022/12/17 19:16:05;;;;;;;120.07;71.13;;;-2.00;99.90;;;;;;5025679;28;20084;-74
2022/12/17 19:18:31;;;;;;;116.97;71.93;;;-2.00;99.90;;;;;;5035731;28;20512;-75
2022/12/17 19:20:58;;;;;;;112.60;71.17;;;-2.10;99.90;;;;;;5023480;28;20037;-74
2022/12/17 19:23:28;;;;;;;120.33;74.33;;;-2.10;99.90;;;;;;5015677;28;20045;-75
2022/12/17 19:25:55;;;;;;;124.20;76.97;;;-2.10;99.90;;;;;;5035453;28;20457;-75
2022/12/17 19:28:21;;;;;;;131.57;79.20;;;-2.00;99.90;;;;;;5039618;28;20126;-75
2022/12/17 19:30:47;;;;;;;129.77;79.30;;;-2.10;99.90;;;;;;5038185;28;20561;-75
2022/12/17 19:33:13;;;;;;;122.10;74.67;;;-2.10;99.90;;;;;;5001805;28;20049;-75
2022/12/17 19:35:38;;;;;;;120.33;73.47;;;-2.10;99.90;;;;;;5022676;28;20044;-76
2022/12/17 19:38:04;;;;;;;120.23;74.23;;;-2.10;99.90;;;;;;4989998;28;20073;-75
2022/12/17 19:40:30;;;;;;;129.67;77.93;;;-2.00;99.90;;;;;;4981723;28;20089;-75
2022/12/17 19:42:56;;;;;;;131.50;78.90;;;-2.10;99.90;;;;;;5024473;28;20094;-75
2022/12/17 19:45:22;;;;;;;137.10;81.63;;;-2.10;99.90;;;;;;5022276;28;20044;-75
2022/12/17 19:47:48;;;;;;;142.30;82.87;;;-2.10;99.90;;;;;;5020120;28;20140;-76
2022/12/17 19:50:14;;;;;;;137.77;82.77;;;-2.10;99.90;;;;;;5022296;28;20442;-74
2022/12/17 19:52:40;;;;;;;143.20;84.57;;;-2.10;99.90;;;;;;5019095;28;20106;-74
2022/12/17 19:55:06;;;;;;;140.97;83.93;;;-2.10;99.90;;;;;;5022748;28;20041;-76
2022/12/17 19:57:35;;;;;;;141.60;83.70;;;-2.10;99.90;;;;;;5003588;28;20241;-75
2022/12/17 20:00:01;;;;;;;132.43;80.00;;;-2.10;99.90;;;;;;5038134;28;20435;-75
2022/12/17 20:02:27;;;;;;;129.47;79.77;;;-2.20;99.90;;;;;;4987492;28;20127;-74
2022/12/17 20:04:53;;;;;;;140.57;83.30;;;-2.10;99.90;;;;;;5019492;28;21152;-75
2022/12/17 20:07:18;;;;;;;147.17;84.63;;;-2.20;99.90;;;;;;5004571;28;20090;-75
2022/12/17 20:09:44;;;;;;;138.50;81.97;;;-2.10;99.90;;;;;;5021096;28;20139;-75
2022/12/17 20:12:11;;;;;;;138.20;85.53;;;-2.20;99.90;;;;;;5038323;28;20135;-75
2022/12/17 20:14:36;;;;;;;134.50;81.67;;;-2.20;99.90;;;;;;5018087;28;20044;-75
2022/12/17 20:17:06;;;;;;;154.10;88.27;;;-2.20;99.90;;;;;;5018167;28;20130;-75
2022/12/17 20:19:33;;;;;;;148.88;84.95;;;-2.20;99.90;;;;;;5022262;28;20066;-75
2022/12/17 20:22:03;;;;;;;145.47;83.07;;;-2.20;99.90;;;;;;5020194;28;20048;-75
2022/12/17 20:24:29;;;;;;;135.73;80.17;;;-2.20;99.90;;;;;;5018710;28;20049;-75
2022/12/17 20:26:55;;;;;;;138.57;81.03;;;-2.20;99.90;;;;;;5037435;28;20045;-75
2022/12/17 20:29:24;;;;;;;142.73;79.40;;;-2.30;99.90;;;;;;5038605;28;20499;-75
2022/12/17 20:31:51;;;;;;;140.87;79.97;;;-2.30;99.90;;;;;;5018387;28;20051;-76
2022/12/17 20:34:19;;;;;;;139.97;81.37;;;-2.30;99.90;;;;;;5018794;28;20173;-76
2022/12/17 20:36:45;;;;;;;134.70;80.10;;;-2.30;99.90;;;;;;5035953;28;20495;-75
2022/12/17 20:39:11;;;;;;;149.23;88.80;;;-2.30;99.90;;;;;;5020936;28;20048;-75
2022/12/17 20:41:38;;;;;;;139.50;84.00;;;-2.30;99.90;;;;;;5020514;28;20479;-76
2022/12/17 20:44:11;;;;;;;147.10;81.37;;;-2.30;99.90;;;;;;5003957;28;20060;-76
2022/12/17 20:46:37;;;;;;;156.20;84.80;;;-2.30;99.90;;;;;;5037736;28;20499;-77
2022/12/17 20:49:04;;;;;;;151.90;82.90;;;-2.30;99.90;;;;;;5036455;28;20043;-76
2022/12/17 20:51:30;;;;;;;140.53;79.03;;;-2.30;99.90;;;;;;5033401;28;20044;-76
2022/12/17 20:53:58;;;;;;;142.53;77.70;;;-2.30;99.90;;;;;;5036243;28;20052;-76
2022/12/17 20:56:30;;;;;;;143.47;77.43;;;-2.40;99.90;;;;;;5018975;28;20139;-75
2022/12/17 20:59:02;;;;;;;148.30;79.37;;;-2.40;99.90;;;;;;5036039;28;20075;-75
2022/12/17 21:01:29;;;;;;;137.90;79.03;;;-2.40;99.90;;;;;;5020539;28;20406;-76
2022/12/17 21:03:57;;;;;;;150.47;79.80;;;-2.40;99.90;;;;;;5021455;28;20075;-76
2022/12/17 21:06:24;;;;;;;137.10;77.20;;;-2.50;99.90;;;;;;5016298;28;20139;-76
2022/12/17 21:08:51;;;;;;;147.37;78.00;;;-2.50;99.90;;;;;;5024477;28;20287;-76
2022/12/17 21:11:21;;;;;;;149.87;79.77;;;-2.50;99.90;;;;;;5026990;28;20526;-76
2022/12/17 21:13:47;;;;;;;156.93;78.45;;;-2.50;99.90;;;;;;5041334;28;20044;-75
2022/12/17 21:16:21;;;;;;;158.23;82.43;;;-2.50;99.90;;;;;;5016811;28;20036;-76
2022/12/17 21:18:47;;;;;;;161.53;82.97;;;-2.50;99.90;;;;;;5025198;28;20136;-76
2022/12/17 21:21:17;;;;;;;156.93;78.93;;;-2.50;99.90;;;;;;5038804;28;20123;-76
2022/12/17 21:23:44;;;;;;;171.85;85.10;;;-2.50;99.90;;;;;;5023509;28;20044;-76
2022/12/17 21:26:18;;;;;;;160.10;80.57;;;-2.50;99.90;;;;;;5004740;28;20528;-76
2022/12/17 21:28:46;;;;;;;147.67;76.90;;;-2.50;99.90;;;;;;5041316;28;20048;-75
2022/12/17 21:31:20;;;;;;;149.53;76.80;;;-2.60;99.90;;;;;;5037631;28;20052;-76
2022/12/17 21:33:47;;;;;;;168.97;81.30;;;-2.60;99.90;;;;;;5039446;28;20028;-76
2022/12/17 21:36:14;;;;;;;160.17;79.43;;;-2.60;99.90;;;;;;5005468;28;20056;-77
2022/12/17 21:38:41;;;;;;;174.60;81.07;;;-2.70;99.90;;;;;;5038588;28;20044;-76
2022/12/17 21:41:09;;;;;;;183.67;81.07;;;-2.70;99.90;;;;;;5037494;28;20094;-77
2022/12/17 21:43:36;;;;;;;173.27;79.53;;;-2.70;99.90;;;;;;5024073;28;20209;-75
2022/12/17 21:46:02;;;;;;;179.47;84.03;;;-2.70;99.90;;;;;;5024364;28;20048;-76
2022/12/17 21:48:28;;;;;;;176.80;84.80;;;-2.70;99.90;;;;;;5026382;28;20151;-70
2022/12/17 21:50:54;;;;;;;199.47;87.77;;;-2.70;99.90;;;;;;5006426;28;20028;-70
2022/12/17 21:53:23;;;;;;;182.60;84.83;;;-2.70;99.90;;;;;;5006456;28;20120;-69
2022/12/17 21:55:49;;;;;;;189.80;86.67;;;-2.70;99.90;;;;;;5037985;28;20037;-70
2022/12/17 21:58:15;;;;;;;174.23;82.80;;;-2.70;99.90;;;;;;5007722;28;20423;-70
2022/12/17 22:00:41;;;;;;;191.40;86.47;;;-2.70;99.90;;;;;;5028107;28;20045;-69
2022/12/17 22:03:07;;;;;;;181.53;81.50;;;-2.70;99.90;;;;;;5021675;28;20131;-68
2022/12/17 22:05:36;;;;;;;177.67;83.00;;;-2.70;99.90;;;;;;5025089;28;20451;-68
2022/12/17 22:08:03;;;;;;;148.60;71.97;;;-2.70;99.90;;;;;;5026226;28;20087;-68
2022/12/17 22:10:30;;;;;;;151.53;74.10;;;-2.70;99.90;;;;;;5039905;28;20048;-69
2022/12/17 22:15:40;;;;;;;151.47;74.13;;;-2.80;99.90;;;;;;5037583;28;20056;-68
2022/12/17 22:18:06;;;;;;;135.00;68.83;;;-2.80;99.90;;;;;;5038927;28;20056;-68
2022/12/17 22:20:31;;;;;;;145.80;72.53;;;-2.80;99.90;;;;;;5021241;28;20048;-68
2022/12/17 22:23:00;;;;;;;143.37;73.33;;;-2.80;99.90;;;;;;5024792;28;20040;-68
2022/12/17 22:25:26;;;;;;;163.80;74.10;;;-2.80;99.90;;;;;;5021581;28;20837;-68
2022/12/17 22:27:52;;;;;;;146.30;74.77;;;-2.80;99.90;;;;;;5039092;28;20044;-69
2022/12/17 22:33:05;;;;;;;149.30;73.63;;;-2.80;99.90;;;;;;5036182;28;20056;-69
2022/12/17 22:35:42;;;;;;;146.70;73.07;;;-2.80;99.90;;;;;;5040451;28;20087;-68
2022/12/17 22:38:08;;;;;;;150.77;74.13;;;-2.80;99.90;;;;;;5023406;28;20090;-69
2022/12/17 22:40:35;;;;;;;169.13;77.87;;;-2.80;99.90;;;;;;5024332;28;20456;-68
2022/12/17 22:45:46;;;;;;;183.57;81.37;;;-2.80;99.90;;;;;;5039538;28;20128;-69
2022/12/17 22:48:13;;;;;;;182.63;79.57;;;-2.80;99.90;;;;;;5026375;28;20051;-69
2022/12/17 22:50:41;;;;;;;184.57;80.70;;;-2.80;99.90;;;;;;5035183;28;20094;-69
2022/12/17 22:53:07;;;;;;;182.07;80.27;;;-2.80;99.90;;;;;;5014336;28;20056;-69
2022/12/17 22:55:33;;;;;;;181.57;83.17;;;-2.80;99.90;;;;;;5021050;28;20040;-68
2022/12/17 22:57:59;;;;;;;179.07;79.37;;;-2.80;99.90;;;;;;5040218;28;20564;-69
2022/12/17 23:00:34;;;;;;;195.83;82.20;;;-2.80;99.90;;;;;;5019741;28;20072;-69
2022/12/17 23:03:00;;;;;;;210.53;80.93;;;-2.80;99.90;;;;;;5024602;28;20041;-68
2022/12/17 23:05:27;;;;;;;179.70;80.57;;;-2.90;99.90;;;;;;5014260;28;20113;-68
2022/12/17 23:07:56;;;;;;;176.17;75.53;;;-2.90;99.90;;;;;;5025179;28;20040;-68
2022/12/17 23:10:23;;;;;;;173.23;76.43;;;-2.90;99.90;;;;;;5018277;28;20037;-69
2022/12/17 23:12:50;;;;;;;220.47;87.30;;;-2.90;99.90;;;;;;5009458;28;20052;-68
2022/12/17 23:15:32;;;;;;;182.73;83.00;;;-2.80;99.90;;;;;;5022657;28;20114;-69
2022/12/17 23:18:00;;;;;;;181.63;80.67;;;-2.90;99.90;;;;;;5039694;28;20044;-69
2022/12/17 23:20:27;;;;;;;184.00;80.27;;;-2.90;99.90;;;;;;5037396;28;20045;-68
2022/12/17 23:22:56;;;;;;;163.00;75.97;;;-2.90;99.90;;;;;;5037782;28;20372;-69
2022/12/17 23:25:22;;;;;;;166.37;75.70;;;-2.90;99.90;;;;;;5037691;28;20036;-68
2022/12/17 23:27:49;;;;;;;195.67;82.23;;;-2.80;99.90;;;;;;5008101;28;20044;-68
2022/12/17 23:30:16;;;;;;;197.47;82.90;;;-2.80;99.90;;;;;;5022757;28;20040;-69
2022/12/17 23:32:48;;;;;;;257.27;87.43;;;-2.90;99.90;;;;;;5002152;28;20040;-69
2022/12/17 23:35:14;;;;;;;180.63;78.73;;;-2.90;99.90;;;;;;5034287;28;20044;-69
2022/12/17 23:37:40;;;;;;;178.33;77.10;;;-2.90;99.90;;;;;;5020295;28;20043;-68
2022/12/17 23:40:08;;;;;;;157.63;71.23;;;-2.90;99.90;;;;;;5036994;28;20044;-68
2022/12/17 23:42:35;;;;;;;182.07;76.57;;;-2.90;99.90;;;;;;5023449;28;20040;-68
2022/12/17 23:45:00;;;;;;;169.23;73.53;;;-3.00;99.90;;;;;;5007353;28;20064;-68
2022/12/17 23:47:26;;;;;;;152.03;67.77;;;-3.00;99.90;;;;;;5021624;28;20044;-68
2022/12/17 23:49:52;;;;;;;156.90;70.30;;;-3.00;99.90;;;;;;5039478;28;20481;-69
2022/12/17 23:52:18;;;;;;;149.87;68.83;;;-3.10;99.90;;;;;;5018949;28;20049;-69
2022/12/17 23:54:43;;;;;;;146.83;71.53;;;-3.10;99.90;;;;;;5007910;28;20044;-68
2022/12/17 23:57:09;;;;;;;151.07;69.27;;;-3.20;99.90;;;;;;5018253;28;20040;-69
2022/12/17 23:59:35;;;;;;;171.20;77.53;;;-3.20;99.90;;;;;;4989564;28;20040;-69
